createdAt,value
2022-10-20T00:00:13.505Z,102168.19
2022-10-20T00:02:16.423Z,102159.97
2022-10-20T00:04:17.903Z,102167.03
2022-10-20T00:06:20.455Z,102161.53
2022-10-20T00:08:21.996Z,102164.88
2022-10-20T00:10:23.976Z,102159.66
2022-10-20T00:12:25.492Z,102160.69
2022-10-20T00:14:26.810Z,102157.41
2022-10-20T00:16:30.226Z,102145.94
2022-10-20T00:18:33.725Z,102155.66
2022-10-20T00:20:35.223Z,102154.91
2022-10-20T00:22:36.771Z,102153.19
2022-10-20T00:24:38.436Z,102149.84
2022-10-20T00:26:39.751Z,102155.28
2022-10-20T00:28:41.481Z,102153.59
2022-10-20T00:30:43.028Z,102152.72
2022-10-20T00:32:46.668Z,102156.28
2022-10-20T00:34:49.523Z,102146.69
2022-10-20T00:36:51.542Z,102155.66
2022-10-20T00:38:58.873Z,102156.59
2022-10-20T00:41:00.852Z,102142.97
2022-10-20T00:43:02.407Z,102137.75
2022-10-20T00:45:04.032Z,102127.09
2022-10-20T00:47:05.770Z,102130.78
2022-10-20T00:49:12.809Z,102130.00
2022-10-20T00:51:19.727Z,102125.53
2022-10-20T00:53:24.243Z,102113.91
2022-10-20T00:55:28.891Z,102119.28
2022-10-20T00:57:31.277Z,102114.88
2022-10-20T00:59:36.181Z,102113.06
2022-10-20T01:01:40.255Z,102114.81
2022-10-20T01:03:45.051Z,102110.38
2022-10-20T01:05:46.568Z,102100.78
2022-10-20T01:07:49.290Z,102107.25
2022-10-20T01:09:50.933Z,102108.09
2022-10-20T01:12:03.546Z,102105.59
2022-10-20T01:14:26.682Z,102111.78
2022-10-20T01:16:39.195Z,102109.31
2022-10-20T01:18:49.503Z,102104.00
2022-10-20T01:21:21.887Z,102105.59
2022-10-20T01:23:58.098Z,102103.84
2022-10-20T01:26:31.273Z,102103.94
2022-10-20T01:28:39.440Z,102096.97
2022-10-20T01:30:46.636Z,102094.19
2022-10-20T01:33:11.575Z,102087.03
2022-10-20T01:35:21.248Z,102087.03
2022-10-20T01:37:40.720Z,102083.19
2022-10-20T01:39:53.717Z,102076.44
2022-10-20T01:41:58.858Z,102085.00
2022-10-20T01:44:03.505Z,102082.38
2022-10-20T01:46:09.376Z,102079.75
2022-10-20T01:48:13.725Z,102076.31
2022-10-20T01:50:18.146Z,102072.81
2022-10-20T01:52:21.820Z,102074.63
2022-10-20T01:54:25.525Z,102064.22
2022-10-20T01:56:36.592Z,102064.22
2022-10-20T01:59:20.955Z,102064.31
2022-10-20T02:01:33.621Z,102060.88
2022-10-20T02:03:45.087Z,102052.06
2022-10-20T02:06:00.600Z,102045.94
2022-10-20T02:08:11.230Z,102038.06
2022-10-20T02:10:16.841Z,102026.69
2022-10-20T02:12:23.605Z,102034.69
2022-10-20T02:14:27.166Z,102027.69
2022-10-20T02:16:32.221Z,102031.25
2022-10-20T02:18:39.761Z,102026.00
2022-10-20T02:20:43.673Z,102033.03
2022-10-20T02:22:45.635Z,102023.34
2022-10-20T02:24:47.888Z,102023.34
2022-10-20T02:26:51.650Z,102011.88
2022-10-20T02:28:56.881Z,102010.97
2022-10-20T02:31:00.006Z,102023.31
2022-10-20T02:33:02.298Z,102021.63
2022-10-20T02:35:06.767Z,102022.63
2022-10-20T02:37:08.686Z,102013.84
2022-10-20T02:39:10.840Z,102015.59
2022-10-20T02:41:12.375Z,102017.44
2022-10-20T02:43:13.755Z,102012.09
2022-10-20T02:45:15.631Z,102006.88
2022-10-20T02:47:18.497Z,102009.50
2022-10-20T02:49:23.212Z,102005.16
2022-10-20T02:51:24.867Z,102008.66
2022-10-20T02:53:26.389Z,102007.78
2022-10-20T02:55:27.737Z,102006.19
2022-10-20T02:57:29.223Z,102008.66
2022-10-20T02:59:30.695Z,102001.50
2022-10-20T03:01:32.429Z,102006.84
2022-10-20T03:03:35.289Z,102008.69
2022-10-20T03:05:39.397Z,101998.22
2022-10-20T03:07:40.928Z,102006.06
2022-10-20T03:09:42.334Z,102005.97
2022-10-20T03:11:43.984Z,101997.19
2022-10-20T03:13:45.602Z,101994.59
2022-10-20T03:15:47.127Z,102001.63
2022-10-20T03:17:48.459Z,101989.31
2022-10-20T03:19:51.375Z,101989.41
2022-10-20T03:21:52.929Z,101985.91
2022-10-20T03:23:54.505Z,101984.16
2022-10-20T03:26:01.677Z,101979.69
2022-10-20T03:28:03.265Z,101975.53
2022-10-20T03:30:05.139Z,101973.78
2022-10-20T03:32:06.728Z,101971.97
2022-10-20T03:34:08.124Z,101975.56
2022-10-20T03:36:10.992Z,101973.03
2022-10-20T03:38:12.559Z,101975.69
2022-10-20T03:40:14.082Z,101968.69
2022-10-20T03:42:15.658Z,101970.44
2022-10-20T03:44:17.034Z,101971.44
2022-10-20T03:46:18.533Z,101974.16
2022-10-20T03:48:19.922Z,101974.91
2022-10-20T03:50:21.587Z,101975.81
2022-10-20T03:52:24.549Z,101978.56
2022-10-20T03:54:26.038Z,101975.88
2022-10-20T03:56:27.561Z,101976.84
2022-10-20T03:58:28.868Z,101972.28
2022-10-20T04:00:30.375Z,101976.63
2022-10-20T04:02:33.510Z,101961.69
2022-10-20T04:04:35.487Z,101967.88
2022-10-20T04:06:37.062Z,101959.97
2022-10-20T04:08:42.955Z,101961.75
2022-10-20T04:11:02.467Z,101967.19
2022-10-20T04:13:04.333Z,101964.63
2022-10-20T04:15:15.075Z,101959.38
2022-10-20T04:17:17.761Z,101955.09
2022-10-20T04:19:19.290Z,101949.84
2022-10-20T04:21:20.975Z,101949.81
2022-10-20T04:23:22.491Z,101951.63
2022-10-20T04:25:25.322Z,101951.66
2022-10-20T04:27:28.172Z,101951.69
2022-10-20T04:29:29.816Z,101953.38
2022-10-20T04:31:31.293Z,101944.50
2022-10-20T04:33:33.759Z,101935.81
2022-10-20T04:35:35.470Z,101940.13
2022-10-20T04:37:37.279Z,101941.91
2022-10-20T04:39:39.149Z,101928.63
2022-10-20T04:41:41.809Z,101934.03
2022-10-20T04:43:43.300Z,101928.84
2022-10-20T04:45:50.881Z,101924.53
2022-10-20T04:47:52.386Z,101930.78
2022-10-20T04:50:01.915Z,101928.09
2022-10-20T04:52:03.734Z,101931.56
2022-10-20T04:56:15.819Z,101920.06
2022-10-20T04:58:18.642Z,101920.88
2022-10-20T05:00:20.213Z,101909.41
2022-10-20T05:02:21.551Z,101912.06
2022-10-20T05:04:23.221Z,101911.16
2022-10-20T05:06:26.181Z,101910.16
2022-10-20T05:08:27.691Z,101907.47
2022-10-20T05:10:31.046Z,101917.94
2022-10-20T05:12:34.857Z,101904.75
2022-10-20T05:14:37.888Z,101905.59
2022-10-20T05:16:39.475Z,101909.16
2022-10-20T05:18:40.859Z,101902.16
2022-10-20T05:21:07.103Z,101902.22
2022-10-20T05:23:03.918Z,101902.38
2022-10-20T05:25:31.228Z,101900.75
2022-10-20T05:27:29.803Z,101897.25
2022-10-20T05:29:31.435Z,101897.22
2022-10-20T05:31:36.182Z,101900.81
2022-10-20T05:33:38.288Z,101905.19
2022-10-20T05:35:39.767Z,101901.75
2022-10-20T05:37:41.232Z,101893.88
2022-10-20T05:39:42.725Z,101887.81
2022-10-20T05:41:44.267Z,101894.84
2022-10-20T05:43:48.352Z,101897.56
2022-10-20T05:45:53.840Z,101908.09
2022-10-20T05:47:56.796Z,101902.00
2022-10-20T05:49:58.304Z,101901.16
2022-10-20T05:51:59.952Z,101904.66
2022-10-20T05:54:03.418Z,101913.44
2022-10-20T05:56:05.650Z,101904.66
2022-10-20T05:58:07.129Z,101906.44
2022-10-20T06:00:10.256Z,101897.63
2022-10-20T06:02:12.052Z,101909.84
2022-10-20T06:04:16.185Z,101906.22
2022-10-20T06:06:19.036Z,101918.44
2022-10-20T06:08:20.567Z,101920.53
2022-10-20T06:10:21.886Z,101917.91
2022-10-20T06:12:23.488Z,101917.66
2022-10-20T06:14:25.595Z,101923.63
2022-10-20T06:16:27.865Z,101919.50
2022-10-20T06:18:29.416Z,101926.25
2022-10-20T06:20:32.102Z,101924.00
2022-10-20T06:22:33.798Z,101918.13
2022-10-20T06:24:35.519Z,101931.56
2022-10-20T06:26:37.864Z,101916.88
2022-10-20T06:28:44.737Z,101915.22
2022-10-20T06:30:46.288Z,101915.31
2022-10-20T06:32:47.604Z,101912.66
2022-10-20T06:34:49.085Z,101912.66
2022-10-20T06:36:52.230Z,101916.19
2022-10-20T06:38:54.655Z,101914.50
2022-10-20T06:40:56.102Z,101911.94
2022-10-20T06:42:57.609Z,101912.78
2022-10-20T06:44:59.413Z,101903.97
2022-10-20T06:47:00.871Z,101906.50
2022-10-20T06:49:03.798Z,101898.56
2022-10-20T06:51:07.406Z,101906.38
2022-10-20T06:53:10.249Z,101899.28
2022-10-20T06:55:11.754Z,101907.13
2022-10-20T06:57:13.246Z,101914.06
2022-10-20T06:59:14.709Z,101901.66
2022-10-20T07:01:18.231Z,101901.59
2022-10-20T07:03:19.881Z,101904.13
2022-10-20T07:05:21.411Z,101894.19
2022-10-20T07:07:22.885Z,101899.31
2022-10-20T07:09:25.676Z,101903.69
2022-10-20T07:11:28.626Z,101905.38
2022-10-20T07:13:31.397Z,101896.53
2022-10-20T07:15:32.829Z,101893.59
2022-10-20T07:17:34.287Z,101893.34
2022-10-20T07:19:35.797Z,101898.44
2022-10-20T07:21:40.154Z,101895.63
2022-10-20T07:23:43.903Z,101896.38
2022-10-20T07:25:46.711Z,101896.31
2022-10-20T07:27:48.309Z,101896.25
2022-10-20T07:29:49.755Z,101882.03
2022-10-20T07:31:51.241Z,101885.38
2022-10-20T07:34:06.938Z,101889.75
2022-10-20T07:36:16.124Z,101888.59
2022-10-20T07:38:17.684Z,101890.16
2022-10-20T07:40:19.412Z,101883.66
2022-10-20T07:42:22.260Z,101886.38
2022-10-20T07:44:23.874Z,101890.88
2022-10-20T07:46:25.820Z,101879.34
2022-10-20T07:48:27.379Z,101870.25
2022-10-20T07:50:28.769Z,101878.03
2022-10-20T07:52:30.418Z,101883.09
2022-10-20T07:54:34.040Z,101889.28
2022-10-20T07:56:37.082Z,101878.66
2022-10-20T07:58:40.430Z,101882.06
2022-10-20T08:00:41.917Z,101882.94
2022-10-20T08:02:43.293Z,101880.03
2022-10-20T08:04:44.993Z,101870.38
2022-10-20T08:06:46.500Z,101876.13
2022-10-20T08:08:47.914Z,101879.41
2022-10-20T08:10:49.381Z,101873.72
2022-10-20T08:12:50.691Z,101861.19
2022-10-20T08:14:56.190Z,101866.25
2022-10-20T08:16:58.031Z,101864.56
2022-10-20T08:20:43.264Z,101857.13
2022-10-20T08:21:30.141Z,101858.59
2022-10-20T08:23:31.599Z,101851.19
2022-10-20T08:25:32.902Z,101842.25
2022-10-20T08:27:34.391Z,101845.44
2022-10-20T08:29:36.111Z,101846.81
2022-10-20T08:31:39.057Z,101846.63
2022-10-20T08:33:40.699Z,101845.31
2022-10-20T08:35:42.155Z,101846.53
2022-10-20T08:37:43.441Z,101840.69
2022-10-20T08:39:44.944Z,101841.41
2022-10-20T08:44:14.979Z,101844.25
2022-10-20T08:48:32.089Z,101847.44
2022-10-20T08:50:44.229Z,101836.66
2022-10-20T08:52:50.611Z,101833.41
2022-10-20T08:54:54.433Z,101824.28
2022-10-20T08:56:56.070Z,101818.56
2022-10-20T08:58:57.677Z,101822.81
2022-10-20T09:01:00.838Z,101819.97
2022-10-20T09:03:11.536Z,101822.03
2022-10-20T09:05:18.413Z,101821.72
2022-10-20T09:07:24.371Z,101827.38
2022-10-20T09:09:30.541Z,101824.31
2022-10-20T09:11:40.752Z,101823.09
2022-10-20T09:13:42.733Z,101825.75
2022-10-20T09:15:44.479Z,101820.84
2022-10-20T09:17:49.403Z,101814.38
2022-10-20T09:19:56.090Z,101815.53
2022-10-20T09:22:03.567Z,101800.69
2022-10-20T09:24:06.526Z,101802.78
2022-10-20T09:26:24.753Z,101798.97
2022-10-20T09:28:49.010Z,101789.06
2022-10-20T09:30:56.835Z,101791.31
2022-10-20T09:32:58.620Z,101787.16
2022-10-20T09:35:17.068Z,101784.94
2022-10-20T09:37:19.935Z,101775.97
2022-10-20T09:39:24.201Z,101772.25
2022-10-20T09:41:28.138Z,101769.09
2022-10-20T09:43:29.855Z,101773.16
2022-10-20T09:45:33.745Z,101766.84
2022-10-20T09:47:35.335Z,101766.09
2022-10-20T09:49:38.730Z,101769.56
2022-10-20T09:51:47.415Z,101763.22
2022-10-20T09:53:55.222Z,101758.63
2022-10-20T09:55:56.611Z,101759.19
2022-10-20T09:58:01.245Z,101745.56
2022-10-20T10:00:13.470Z,101745.31
2022-10-20T10:02:28.834Z,101739.63
2022-10-20T10:04:35.566Z,101737.53
2022-10-20T10:06:42.404Z,101728.66
2022-10-20T10:08:46.343Z,101731.41
2022-10-20T10:11:00.547Z,101720.50
2022-10-20T10:13:02.152Z,101710.94
2022-10-20T10:15:06.802Z,101712.28
2022-10-20T10:17:08.305Z,101715.47
2022-10-20T10:19:17.326Z,101714.53
2022-10-20T10:21:18.883Z,101709.88
2022-10-20T10:23:22.528Z,101701.00
2022-10-20T10:25:27.432Z,101698.44
2022-10-20T10:27:32.340Z,101699.38
2022-10-20T10:29:35.850Z,101696.84
2022-10-20T10:31:50.129Z,101705.00
2022-10-20T10:33:56.566Z,101684.00
2022-10-20T10:35:58.068Z,101673.81
2022-10-20T10:38:00.383Z,101665.59
2022-10-20T10:40:03.541Z,101672.38
2022-10-20T10:42:39.444Z,101670.78
2022-10-20T10:44:55.045Z,101655.25
2022-10-20T10:47:05.253Z,101665.25
2022-10-20T10:49:38.236Z,101659.59
2022-10-20T10:51:53.856Z,101656.94
2022-10-20T10:54:11.971Z,101650.34
2022-10-20T10:56:21.636Z,101643.19
2022-10-20T10:58:37.052Z,101652.06
2022-10-20T11:00:45.562Z,101638.56
2022-10-20T11:03:01.989Z,101648.63
2022-10-20T11:05:37.089Z,101641.72
2022-10-20T11:07:42.792Z,101633.88
2022-10-20T11:09:59.287Z,101621.28
2022-10-20T11:12:24.037Z,101616.47
2022-10-20T11:14:38.093Z,101607.38
2022-10-20T11:16:43.856Z,101606.72
2022-10-20T11:19:23.620Z,101597.75
2022-10-20T11:21:33.814Z,101591.13
2022-10-20T11:24:02.330Z,101586.88
2022-10-20T11:26:14.146Z,101585.59
2022-10-20T11:28:31.019Z,101586.38
2022-10-20T11:30:34.099Z,101576.47
2022-10-20T11:32:39.858Z,101582.94
2022-10-20T11:34:52.476Z,101577.56
2022-10-20T11:37:02.502Z,101583.00
2022-10-20T11:39:04.789Z,101576.97
2022-10-20T11:41:10.938Z,101566.66
2022-10-20T11:43:17.481Z,101566.13
2022-10-20T11:45:29.882Z,101571.84
2022-10-20T11:47:38.155Z,101572.56
2022-10-20T11:49:40.778Z,101565.16
2022-10-20T11:52:16.200Z,101562.41
2022-10-20T11:54:38.158Z,101556.91
2022-10-20T11:56:55.748Z,101562.41
2022-10-20T11:59:15.331Z,101559.13
2022-10-20T12:01:33.026Z,101554.09
2022-10-20T12:04:00.566Z,101550.47
2022-10-20T12:06:55.281Z,101547.22
2022-10-20T12:11:41.823Z,101540.22
2022-10-20T12:13:56.684Z,101545.25
2022-10-20T12:15:58.326Z,101541.16
2022-10-20T12:18:04.194Z,101543.06
2022-10-20T12:20:57.538Z,101545.81
2022-10-20T12:23:00.433Z,101540.22
2022-10-20T12:25:34.625Z,101539.44
2022-10-20T12:27:36.248Z,101527.00
2022-10-20T12:30:05.924Z,101519.25
2022-10-20T12:32:47.366Z,101509.59
2022-10-20T12:34:50.646Z,101507.69
2022-10-20T12:37:07.373Z,101505.00
2022-10-20T12:39:21.343Z,101511.13
2022-10-20T12:41:28.477Z,101507.03
2022-10-20T12:43:47.599Z,101508.91
2022-10-20T12:45:50.363Z,101512.34
2022-10-20T12:47:56.186Z,101511.47
2022-10-20T12:50:02.518Z,101502.50
2022-10-20T12:52:06.103Z,101494.72
2022-10-20T12:54:22.940Z,101502.84
2022-10-20T12:56:34.093Z,101506.84
2022-10-20T12:58:37.016Z,101500.84
2022-10-20T13:01:04.054Z,101483.84
2022-10-20T13:03:37.319Z,101478.34
2022-10-20T13:05:47.099Z,101476.63
2022-10-20T13:08:00.056Z,101471.69
2022-10-20T13:10:17.904Z,101471.41
2022-10-20T13:12:26.236Z,101465.63
2022-10-20T13:14:47.672Z,101467.00
2022-10-20T13:16:58.234Z,101468.22
2022-10-20T13:19:00.320Z,101463.31
2022-10-20T13:21:07.908Z,101449.47
2022-10-20T13:23:12.733Z,101460.78
2022-10-20T13:25:26.140Z,101457.50
2022-10-20T13:27:27.656Z,101450.69
2022-10-20T13:29:34.191Z,101447.84
2022-10-20T13:31:46.669Z,101443.25
2022-10-20T13:34:04.443Z,101451.44
2022-10-20T13:36:15.486Z,101445.31
2022-10-20T13:38:23.349Z,101432.03
2022-10-20T13:40:37.789Z,101431.84
2022-10-20T13:42:56.386Z,101425.38
2022-10-20T13:45:07.383Z,101416.47
2022-10-20T13:47:29.071Z,101418.78
2022-10-20T13:49:54.940Z,101420.47
2022-10-20T13:52:02.780Z,101419.41
2022-10-20T13:54:06.894Z,101415.59
2022-10-20T13:56:21.882Z,101401.72
2022-10-20T13:58:26.089Z,101406.78
2022-10-20T14:00:29.791Z,101419.56
2022-10-20T14:02:34.820Z,101407.38
2022-10-20T14:04:37.198Z,101411.72
2022-10-20T14:06:38.886Z,101410.78
2022-10-20T14:08:43.333Z,101412.75
2022-10-20T14:10:49.540Z,101404.22
2022-10-20T14:12:54.056Z,101417.53
2022-10-20T14:15:01.428Z,101416.75
2022-10-20T14:17:05.878Z,101415.63
2022-10-20T14:19:11.703Z,101422.19
2022-10-20T14:21:16.335Z,101415.78
2022-10-20T14:23:17.997Z,101422.44
2022-10-20T14:25:20.229Z,101420.47
2022-10-20T14:27:24.465Z,101414.94
2022-10-20T14:29:29.845Z,101426.59
2022-10-20T14:31:31.612Z,101414.06
2022-10-20T14:33:36.721Z,101417.78
2022-10-20T14:35:42.091Z,101412.09
2022-10-20T14:37:46.949Z,101412.69
2022-10-20T14:39:50.655Z,101422.63
2022-10-20T14:41:55.536Z,101416.66
2022-10-20T14:44:04.959Z,101415.28
2022-10-20T14:46:14.120Z,101406.47
2022-10-20T14:48:16.614Z,101408.72
2022-10-20T14:50:32.464Z,101394.56
2022-10-20T14:52:35.244Z,101390.25
2022-10-20T14:54:38.493Z,101378.59
2022-10-20T14:56:44.238Z,101380.56
2022-10-20T14:58:57.765Z,101371.59
2022-10-20T15:01:22.046Z,101360.22
2022-10-20T15:03:26.066Z,101361.41
2022-10-20T15:05:40.171Z,101359.88
2022-10-20T15:07:41.653Z,101356.75
2022-10-20T15:09:45.905Z,101355.16
2022-10-20T15:11:47.904Z,101360.78
2022-10-20T15:13:55.397Z,101367.41
2022-10-20T15:15:58.305Z,101363.56
2022-10-20T15:18:14.370Z,101361.75
2022-10-20T15:20:41.146Z,101369.09
2022-10-20T15:22:42.467Z,101358.19
2022-10-20T15:24:44.044Z,101366.47
2022-10-20T15:26:45.552Z,101360.50
2022-10-20T15:28:49.418Z,101352.97
2022-10-20T15:30:51.110Z,101354.16
2022-10-20T15:32:53.075Z,101363.28
2022-10-20T15:35:01.263Z,101360.69
2022-10-20T15:37:05.701Z,101352.28
2022-10-20T15:39:07.214Z,101353.22
2022-10-20T15:41:11.605Z,101344.41
2022-10-20T15:43:15.355Z,101344.56
2022-10-20T15:45:24.961Z,101334.91
2022-10-20T15:47:26.505Z,101333.22
2022-10-20T15:49:28.122Z,101327.94
2022-10-20T15:51:33.513Z,101321.97
2022-10-20T15:53:35.083Z,101324.81
2022-10-20T15:55:39.504Z,101316.41
2022-10-20T15:57:40.985Z,101311.31
2022-10-20T15:59:42.559Z,101303.94
2022-10-20T16:01:44.233Z,101319.09
2022-10-20T16:03:47.139Z,101302.50
2022-10-20T16:05:48.697Z,101287.84
2022-10-20T16:07:52.484Z,101295.75
2022-10-20T16:09:55.602Z,101294.03
2022-10-20T16:11:57.083Z,101289.28
2022-10-20T16:13:58.644Z,101289.50
2022-10-20T16:16:00.264Z,101280.66
2022-10-20T16:18:03.536Z,101291.91
2022-10-20T16:20:08.610Z,101281.38
2022-10-20T16:22:10.058Z,101290.19
2022-10-20T16:24:12.892Z,101297.53
2022-10-20T16:26:14.464Z,101310.97
2022-10-20T16:28:16.309Z,101322.72
2022-10-20T16:30:17.846Z,101318.06
2022-10-20T16:32:19.350Z,101314.31
2022-10-20T16:34:20.896Z,101308.97
2022-10-20T16:36:22.402Z,101312.28
2022-10-20T16:38:24.146Z,101324.13
2022-10-20T16:40:27.277Z,101309.00
2022-10-20T16:42:29.266Z,101304.66
2022-10-20T16:44:30.934Z,101316.47
2022-10-20T16:46:32.504Z,101311.28
2022-10-20T16:48:36.960Z,101313.31
2022-10-20T16:50:41.845Z,101302.06
2022-10-20T16:52:43.325Z,101306.41
2022-10-20T16:54:44.811Z,101317.22
2022-10-20T16:56:47.681Z,101310.16
2022-10-20T16:58:49.474Z,101312.03
2022-10-20T17:00:59.185Z,101301.22
2022-10-20T17:03:00.748Z,101293.28
2022-10-20T17:05:05.309Z,101296.28
2022-10-20T17:07:09.763Z,101289.38
2022-10-20T17:09:11.515Z,101279.94
2022-10-20T17:11:15.614Z,101281.59
2022-10-20T17:13:18.536Z,101269.94
2022-10-20T17:15:20.035Z,101265.75
2022-10-20T17:17:21.575Z,101264.16
2022-10-20T17:19:23.089Z,101253.72
2022-10-20T17:21:25.400Z,101259.13
2022-10-20T17:23:26.975Z,101261.72
2022-10-20T17:25:30.747Z,101260.28
2022-10-20T17:27:32.275Z,101260.34
2022-10-20T17:29:35.107Z,101263.88
2022-10-20T17:31:37.086Z,101253.22
2022-10-20T17:33:39.316Z,101238.31
2022-10-20T17:35:40.788Z,101232.19
2022-10-20T17:37:42.248Z,101243.00
2022-10-20T17:39:43.651Z,101234.34
2022-10-20T17:41:46.476Z,101248.63
2022-10-20T17:43:48.106Z,101244.22
2022-10-20T17:45:57.033Z,101232.78
2022-10-20T17:47:58.574Z,101238.25
2022-10-20T17:50:00.070Z,101234.94
2022-10-20T17:52:01.597Z,101226.81
2022-10-20T17:54:02.936Z,101234.78
2022-10-20T17:56:06.332Z,101240.41
2022-10-20T17:58:07.856Z,101245.88
2022-10-20T18:00:16.406Z,101238.75
2022-10-20T18:02:25.563Z,101245.72
2022-10-20T18:04:27.169Z,101248.81
2022-10-20T18:06:34.016Z,101256.94
2022-10-20T18:08:36.555Z,101248.53
2022-10-20T18:10:43.623Z,101241.97
2022-10-20T18:12:45.644Z,101234.50
2022-10-20T18:14:47.159Z,101244.22
2022-10-20T18:16:51.097Z,101246.81
2022-10-20T18:18:55.405Z,101234.22
2022-10-20T18:20:57.636Z,101224.84
2022-10-20T18:22:59.348Z,101218.00
2022-10-20T18:25:00.846Z,101214.59
2022-10-20T18:27:02.568Z,101199.31
2022-10-20T18:29:05.747Z,101188.91
2022-10-20T18:31:08.514Z,101182.50
2022-10-20T18:33:10.144Z,101174.53
2022-10-20T18:35:13.165Z,101174.66
2022-10-20T18:37:14.693Z,101156.47
2022-10-20T18:39:16.770Z,101165.81
2022-10-20T18:41:21.449Z,101175.50
2022-10-20T18:43:23.028Z,101173.34
2022-10-20T18:45:25.995Z,101167.38
2022-10-20T18:47:27.710Z,101175.50
2022-10-20T18:49:29.377Z,101175.69
2022-10-20T18:51:32.748Z,101167.44
2022-10-20T18:53:35.767Z,101177.50
2022-10-20T18:55:37.225Z,101171.44
2022-10-20T18:57:39.169Z,101175.91
2022-10-20T18:59:41.129Z,101178.84
2022-10-20T19:01:43.366Z,101169.41
2022-10-20T19:03:46.498Z,101160.22
2022-10-20T19:05:47.987Z,101168.84
2022-10-20T19:07:50.651Z,101165.00
2022-10-20T19:09:55.447Z,101161.75
2022-10-20T19:11:57.248Z,101158.94
2022-10-20T19:13:59.150Z,101160.59
2022-10-20T19:16:00.969Z,101145.91
2022-10-20T19:18:02.443Z,101151.91
2022-10-20T19:20:04.395Z,101146.28
2022-10-20T19:22:05.885Z,101151.16
2022-10-20T19:24:11.585Z,101151.03
2022-10-20T19:26:15.298Z,101157.81
2022-10-20T19:28:16.795Z,101163.66
2022-10-20T19:30:18.588Z,101158.63
2022-10-20T19:32:20.069Z,101160.41
2022-10-20T19:34:24.270Z,101166.66
2022-10-20T19:36:27.235Z,101156.34
2022-10-20T19:38:28.743Z,101147.56
2022-10-20T19:40:31.594Z,101147.31
2022-10-20T19:42:33.262Z,101150.38
2022-10-20T19:44:35.043Z,101138.13
2022-10-20T19:46:36.523Z,101141.72
2022-10-20T19:48:39.596Z,101144.25
2022-10-20T19:50:41.068Z,101140.94
2022-10-20T19:52:42.390Z,101146.72
2022-10-20T19:54:43.923Z,101143.81
2022-10-20T19:56:47.181Z,101131.88
2022-10-20T19:58:48.816Z,101133.94
2022-10-20T20:00:52.289Z,101127.34
2022-10-20T20:02:53.780Z,101128.28
2022-10-20T20:04:55.116Z,101126.56
2022-10-20T20:07:01.727Z,101130.53
2022-10-20T20:09:06.785Z,101119.66
2022-10-20T20:11:08.883Z,101126.16
2022-10-20T20:13:11.727Z,101118.97
2022-10-20T20:15:13.194Z,101119.50
2022-10-20T20:17:14.540Z,101122.03
2022-10-20T20:19:26.401Z,101121.13
2022-10-20T20:21:28.201Z,101109.81
2022-10-20T20:23:41.193Z,101101.44
2022-10-20T20:25:51.852Z,101107.81
2022-10-20T20:27:53.787Z,101106.81
2022-10-20T20:29:56.681Z,101107.94
2022-10-20T20:31:58.173Z,101109.28
2022-10-20T20:33:59.498Z,101105.56
2022-10-20T20:36:02.533Z,101104.88
2022-10-20T20:38:04.099Z,101101.84
2022-10-20T20:40:06.768Z,101102.69
2022-10-20T20:42:08.308Z,101102.75
2022-10-20T20:44:10.266Z,101104.75
2022-10-20T20:46:15.378Z,101108.34
2022-10-20T20:48:17.034Z,101104.28
2022-10-20T20:50:18.552Z,101103.03
2022-10-20T20:52:19.886Z,101094.94
2022-10-20T20:54:21.495Z,101104.75
2022-10-20T20:56:24.569Z,101104.22
2022-10-20T20:58:29.567Z,101103.97
2022-10-20T21:00:31.106Z,101101.19
2022-10-20T21:02:33.955Z,101104.81
2022-10-20T21:04:35.539Z,101094.13
2022-10-20T21:07:00.838Z,101098.38
2022-10-20T21:09:00.790Z,101101.44
2022-10-20T21:11:05.159Z,101099.66
2022-10-20T21:13:06.675Z,101093.88
2022-10-20T21:15:08.913Z,101090.47
2022-10-20T21:17:10.463Z,101086.28
2022-10-20T21:19:13.374Z,101081.09
2022-10-20T21:21:16.851Z,101089.09
2022-10-20T21:23:18.317Z,101080.72
2022-10-20T21:25:19.795Z,101073.41
2022-10-20T21:27:21.325Z,101075.53
2022-10-20T21:29:22.912Z,101084.50
2022-10-20T21:31:26.032Z,101091.59
2022-10-20T21:33:27.931Z,101078.19
2022-10-20T21:35:31.369Z,101069.56
2022-10-20T21:37:32.844Z,101078.19
2022-10-20T21:39:34.176Z,101075.25
2022-10-20T21:41:36.369Z,101083.09
2022-10-20T21:43:39.867Z,101081.50
2022-10-20T21:45:41.483Z,101093.88
2022-10-20T21:47:42.944Z,101090.28
2022-10-20T21:49:44.246Z,101087.09
2022-10-20T21:51:49.043Z,101091.06
2022-10-20T21:53:54.615Z,101090.69
2022-10-20T21:55:58.083Z,101096.66
2022-10-20T21:57:59.605Z,101090.81
2022-10-20T22:00:00.886Z,101080.78
2022-10-20T22:02:02.376Z,101085.50
2022-10-20T22:04:04.366Z,101088.81
2022-10-20T22:06:06.269Z,101080.69
2022-10-20T22:08:09.118Z,101079.50
2022-10-20T22:10:10.659Z,101079.91
2022-10-20T22:12:11.969Z,101072.72
2022-10-20T22:14:13.526Z,101070.59
2022-10-20T22:16:16.546Z,101077.53
2022-10-20T22:18:18.021Z,101072.19
2022-10-20T22:20:19.321Z,101061.88
2022-10-20T22:22:20.857Z,101058.34
2022-10-20T22:24:23.737Z,101067.00
2022-10-20T22:26:26.516Z,101074.72
2022-10-20T22:28:28.387Z,101063.53
2022-10-20T22:30:30.087Z,101069.00
2022-10-20T22:32:31.579Z,101081.50
2022-10-20T22:34:32.960Z,101078.72
2022-10-20T22:36:34.761Z,101065.91
2022-10-20T22:38:36.281Z,101068.75
2022-10-20T22:40:39.230Z,101063.75
2022-10-20T22:42:41.111Z,101064.16
2022-10-20T22:44:42.901Z,101070.00
2022-10-20T22:46:44.601Z,101071.00
2022-10-20T22:48:46.193Z,101075.94
2022-10-20T22:50:47.848Z,101072.66
2022-10-20T22:52:49.371Z,101067.28
2022-10-20T22:54:50.891Z,101063.56
2022-10-20T22:56:53.686Z,101052.19
2022-10-20T22:58:55.635Z,101060.63
2022-10-20T23:00:57.124Z,101045.47
2022-10-20T23:02:58.833Z,101048.81
2022-10-20T23:05:00.354Z,101028.97
2022-10-20T23:09:08.328Z,101048.03
2022-10-20T23:11:10.344Z,101033.13
2022-10-20T23:13:13.151Z,101036.88
2022-10-20T23:15:14.697Z,101038.31
2022-10-20T23:17:16.235Z,101025.56
2022-10-20T23:19:17.970Z,101015.06
2022-10-20T23:21:19.500Z,101014.59
2022-10-20T23:23:20.892Z,101022.50
2022-10-20T23:25:22.358Z,101017.47
2022-10-20T23:27:23.711Z,101012.34
2022-10-20T23:29:27.974Z,101014.16
2022-10-20T23:31:29.477Z,101012.81
2022-10-20T23:33:30.775Z,101011.22
2022-10-20T23:35:34.842Z,101007.44
2022-10-20T23:37:36.439Z,101014.41
2022-10-20T23:39:38.179Z,101002.84
2022-10-20T23:41:39.674Z,101000.34
2022-10-20T23:43:41.153Z,100980.53
2022-10-20T23:45:43.845Z,100977.75
2022-10-20T23:47:45.417Z,100981.47
2022-10-20T23:49:46.874Z,100978.94
2022-10-20T23:51:48.170Z,100991.31
2022-10-20T23:53:49.689Z,100990.44
2022-10-20T23:55:51.671Z,100990.91
2022-10-20T23:57:53.163Z,100988.78
2022-10-20T23:59:54.525Z,100978.22
